sensor_id;sensor_type;location;lat;lon;timestamp;P1;durP1;ratioP1;P2;durP2;ratioP2
79135;SDS011;68533;51.090;17.216;2023-04-24T00:00:15;16.90;;;10.02;;
79135;SDS011;68533;51.090;17.216;2023-04-24T00:05:28;12.25;;;8.30;;
79135;SDS011;68533;51.090;17.216;2023-04-24T00:07:54;13.93;;;8.85;;
79135;SDS011;68533;51.090;17.216;2023-04-24T00:10:21;12.77;;;8.85;;
79135;SDS011;68533;51.090;17.216;2023-04-24T00:12:46;15.57;;;8.82;;
79135;SDS011;68533;51.090;17.216;2023-04-24T00:15:13;14.13;;;9.45;;
79135;SDS011;68533;51.090;17.216;2023-04-24T00:17:39;12.02;;;7.93;;
79135;SDS011;68533;51.090;17.216;2023-04-24T00:20:05;14.02;;;8.98;;
79135;SDS011;68533;51.090;17.216;2023-04-24T00:22:32;15.80;;;9.32;;
79135;SDS011;68533;51.090;17.216;2023-04-24T00:24:58;13.57;;;9.98;;
79135;SDS011;68533;51.090;17.216;2023-04-24T00:27:24;14.70;;;9.15;;
79135;SDS011;68533;51.090;17.216;2023-04-24T00:29:50;14.65;;;10.20;;
79135;SDS011;68533;51.090;17.216;2023-04-24T00:32:16;16.05;;;9.10;;
79135;SDS011;68533;51.090;17.216;2023-04-24T00:34:43;16.90;;;10.38;;
79135;SDS011;68533;51.090;17.216;2023-04-24T00:37:09;18.10;;;9.60;;
79135;SDS011;68533;51.090;17.216;2023-04-24T00:39:35;18.05;;;10.48;;
79135;SDS011;68533;51.090;17.216;2023-04-24T00:42:01;16.05;;;10.70;;
79135;SDS011;68533;51.090;17.216;2023-04-24T00:44:27;16.98;;;9.98;;
79135;SDS011;68533;51.090;17.216;2023-04-24T00:46:53;16.85;;;9.55;;
79135;SDS011;68533;51.090;17.216;2023-04-24T00:49:21;16.77;;;10.10;;
79135;SDS011;68533;51.090;17.216;2023-04-24T00:51:48;15.80;;;9.00;;
79135;SDS011;68533;51.090;17.216;2023-04-24T00:54:15;14.20;;;9.55;;
79135;SDS011;68533;51.090;17.216;2023-04-24T00:56:41;13.35;;;8.55;;
79135;SDS011;68533;51.090;17.216;2023-04-24T00:59:08;14.05;;;9.50;;
79135;SDS011;68533;51.090;17.216;2023-04-24T01:01:34;13.80;;;8.68;;
79135;SDS011;68533;51.090;17.216;2023-04-24T01:04:01;16.13;;;9.07;;
79135;SDS011;68533;51.090;17.216;2023-04-24T01:06:28;17.50;;;10.27;;
79135;SDS011;68533;51.090;17.216;2023-04-24T01:08:57;16.42;;;9.63;;
79135;SDS011;68533;51.090;17.216;2023-04-24T01:11:24;15.55;;;8.95;;
79135;SDS011;68533;51.090;17.216;2023-04-24T01:13:51;18.27;;;9.77;;
79135;SDS011;68533;51.090;17.216;2023-04-24T01:16:18;16.88;;;9.55;;
79135;SDS011;68533;51.090;17.216;2023-04-24T01:18:48;15.35;;;9.45;;
79135;SDS011;68533;51.090;17.216;2023-04-24T01:21:14;15.43;;;9.07;;
79135;SDS011;68533;51.090;17.216;2023-04-24T01:23:43;14.88;;;10.07;;
79135;SDS011;68533;51.090;17.216;2023-04-24T01:26:10;16.75;;;10.68;;
79135;SDS011;68533;51.090;17.216;2023-04-24T01:28:36;18.63;;;10.10;;
79135;SDS011;68533;51.090;17.216;2023-04-24T01:31:03;17.83;;;10.40;;
79135;SDS011;68533;51.090;17.216;2023-04-24T01:33:29;18.35;;;11.02;;
79135;SDS011;68533;51.090;17.216;2023-04-24T01:35:55;15.98;;;9.85;;
79135;SDS011;68533;51.090;17.216;2023-04-24T01:38:23;22.40;;;11.55;;
79135;SDS011;68533;51.090;17.216;2023-04-24T01:40:49;21.13;;;12.23;;
79135;SDS011;68533;51.090;17.216;2023-04-24T01:43:16;19.42;;;11.80;;
79135;SDS011;68533;51.090;17.216;2023-04-24T01:45:43;17.13;;;10.90;;
79135;SDS011;68533;51.090;17.216;2023-04-24T01:48:11;16.25;;;10.70;;
79135;SDS011;68533;51.090;17.216;2023-04-24T01:50:37;16.73;;;11.00;;
79135;SDS011;68533;51.090;17.216;2023-04-24T01:53:03;15.38;;;9.88;;
79135;SDS011;68533;51.090;17.216;2023-04-24T01:55:30;17.08;;;11.13;;
79135;SDS011;68533;51.090;17.216;2023-04-24T01:57:56;16.15;;;10.65;;
79135;SDS011;68533;51.090;17.216;2023-04-24T02:00:22;16.80;;;9.68;;
79135;SDS011;68533;51.090;17.216;2023-04-24T02:02:50;16.55;;;10.88;;
79135;SDS011;68533;51.090;17.216;2023-04-24T02:05:16;17.90;;;10.75;;
79135;SDS011;68533;51.090;17.216;2023-04-24T02:07:42;18.15;;;11.30;;
79135;SDS011;68533;51.090;17.216;2023-04-24T02:10:08;18.83;;;11.35;;
79135;SDS011;68533;51.090;17.216;2023-04-24T02:12:35;17.38;;;11.05;;
79135;SDS011;68533;51.090;17.216;2023-04-24T02:15:00;17.25;;;10.77;;
79135;SDS011;68533;51.090;17.216;2023-04-24T02:17:27;20.05;;;11.25;;
79135;SDS011;68533;51.090;17.216;2023-04-24T02:19:52;18.67;;;10.77;;
79135;SDS011;68533;51.090;17.216;2023-04-24T02:22:21;16.20;;;11.55;;
79135;SDS011;68533;51.090;17.216;2023-04-24T02:24:46;16.13;;;10.52;;
79135;SDS011;68533;51.090;17.216;2023-04-24T02:27:13;18.38;;;11.95;;
79135;SDS011;68533;51.090;17.216;2023-04-24T02:29:40;17.77;;;11.63;;
79135;SDS011;68533;51.090;17.216;2023-04-24T02:32:06;15.95;;;9.45;;
79135;SDS011;68533;51.090;17.216;2023-04-24T02:34:32;20.52;;;10.88;;
79135;SDS011;68533;51.090;17.216;2023-04-24T02:36:58;22.10;;;11.90;;
79135;SDS011;68533;51.090;17.216;2023-04-24T02:39:24;15.48;;;10.55;;
79135;SDS011;68533;51.090;17.216;2023-04-24T02:44:18;19.15;;;10.63;;
79135;SDS011;68533;51.090;17.216;2023-04-24T02:46:45;18.83;;;11.55;;
79135;SDS011;68533;51.090;17.216;2023-04-24T02:49:10;19.42;;;10.93;;
79135;SDS011;68533;51.090;17.216;2023-04-24T02:51:38;16.45;;;11.75;;
79135;SDS011;68533;51.090;17.216;2023-04-24T02:54:09;20.83;;;10.90;;
79135;SDS011;68533;51.090;17.216;2023-04-24T02:56:35;17.08;;;10.68;;
79135;SDS011;68533;51.090;17.216;2023-04-24T02:59:01;17.58;;;10.85;;
79135;SDS011;68533;51.090;17.216;2023-04-24T03:01:28;17.33;;;11.88;;
79135;SDS011;68533;51.090;17.216;2023-04-24T03:03:54;18.23;;;11.82;;
79135;SDS011;68533;51.090;17.216;2023-04-24T03:06:20;17.90;;;10.50;;
79135;SDS011;68533;51.090;17.216;2023-04-24T03:08:46;17.90;;;11.10;;
79135;SDS011;68533;51.090;17.216;2023-04-24T03:11:12;16.45;;;9.93;;
79135;SDS011;68533;51.090;17.216;2023-04-24T03:13:38;17.70;;;10.82;;
79135;SDS011;68533;51.090;17.216;2023-04-24T03:16:05;17.35;;;9.57;;
79135;SDS011;68533;51.090;17.216;2023-04-24T03:18:31;18.77;;;11.27;;
79135;SDS011;68533;51.090;17.216;2023-04-24T03:20:57;17.20;;;10.88;;
79135;SDS011;68533;51.090;17.216;2023-04-24T03:23:23;15.52;;;9.90;;
79135;SDS011;68533;51.090;17.216;2023-04-24T03:25:49;17.70;;;10.55;;
79135;SDS011;68533;51.090;17.216;2023-04-24T03:28:15;19.02;;;11.35;;
79135;SDS011;68533;51.090;17.216;2023-04-24T03:30:41;16.55;;;10.77;;
79135;SDS011;68533;51.090;17.216;2023-04-24T03:33:07;18.10;;;10.60;;
79135;SDS011;68533;51.090;17.216;2023-04-24T03:35:33;17.13;;;10.60;;
79135;SDS011;68533;51.090;17.216;2023-04-24T03:37:59;20.42;;;10.85;;
79135;SDS011;68533;51.090;17.216;2023-04-24T03:40:26;18.13;;;10.85;;
79135;SDS011;68533;51.090;17.216;2023-04-24T03:42:51;18.00;;;10.35;;
79135;SDS011;68533;51.090;17.216;2023-04-24T03:45:18;18.85;;;11.55;;
79135;SDS011;68533;51.090;17.216;2023-04-24T03:47:44;19.90;;;11.32;;
79135;SDS011;68533;51.090;17.216;2023-04-24T03:50:10;19.20;;;10.65;;
79135;SDS011;68533;51.090;17.216;2023-04-24T03:52:39;14.20;;;10.18;;
79135;SDS011;68533;51.090;17.216;2023-04-24T03:55:05;16.38;;;10.80;;
79135;SDS011;68533;51.090;17.216;2023-04-24T03:57:32;16.63;;;9.98;;
79135;SDS011;68533;51.090;17.216;2023-04-24T03:59:58;18.38;;;10.07;;
79135;SDS011;68533;51.090;17.216;2023-04-24T04:02:24;21.73;;;11.80;;
79135;SDS011;68533;51.090;17.216;2023-04-24T04:04:51;17.92;;;10.48;;
79135;SDS011;68533;51.090;17.216;2023-04-24T04:07:19;23.13;;;11.95;;
79135;SDS011;68533;51.090;17.216;2023-04-24T04:09:45;13.07;;;9.70;;
79135;SDS011;68533;51.090;17.216;2023-04-24T04:12:11;19.98;;;9.63;;
79135;SDS011;68533;51.090;17.216;2023-04-24T04:14:38;19.27;;;11.73;;
79135;SDS011;68533;51.090;17.216;2023-04-24T04:17:04;18.95;;;11.30;;
79135;SDS011;68533;51.090;17.216;2023-04-24T04:19:30;17.00;;;11.23;;
79135;SDS011;68533;51.090;17.216;2023-04-24T04:21:56;16.33;;;11.15;;
79135;SDS011;68533;51.090;17.216;2023-04-24T04:24:25;17.67;;;11.40;;
79135;SDS011;68533;51.090;17.216;2023-04-24T04:26:54;17.88;;;9.25;;
79135;SDS011;68533;51.090;17.216;2023-04-24T04:29:23;20.05;;;11.85;;
79135;SDS011;68533;51.090;17.216;2023-04-24T04:31:49;18.27;;;11.25;;
79135;SDS011;68533;51.090;17.216;2023-04-24T04:34:16;18.35;;;10.88;;
79135;SDS011;68533;51.090;17.216;2023-04-24T04:36:42;17.25;;;11.18;;
79135;SDS011;68533;51.090;17.216;2023-04-24T04:39:08;18.67;;;11.07;;
79135;SDS011;68533;51.090;17.216;2023-04-24T04:41:34;17.38;;;11.07;;
79135;SDS011;68533;51.090;17.216;2023-04-24T04:44:01;20.85;;;10.13;;
79135;SDS011;68533;51.090;17.216;2023-04-24T04:46:30;17.67;;;9.77;;
79135;SDS011;68533;51.090;17.216;2023-04-24T04:48:59;17.27;;;10.32;;
79135;SDS011;68533;51.090;17.216;2023-04-24T04:51:26;16.42;;;11.30;;
79135;SDS011;68533;51.090;17.216;2023-04-24T04:53:53;20.00;;;11.10;;
79135;SDS011;68533;51.090;17.216;2023-04-24T04:56:19;13.63;;;8.98;;
79135;SDS011;68533;51.090;17.216;2023-04-24T04:58:46;18.60;;;9.98;;
79135;SDS011;68533;51.090;17.216;2023-04-24T05:01:12;15.75;;;9.98;;
79135;SDS011;68533;51.090;17.216;2023-04-24T05:03:38;16.00;;;10.90;;
79135;SDS011;68533;51.090;17.216;2023-04-24T05:06:05;16.77;;;10.02;;
79135;SDS011;68533;51.090;17.216;2023-04-24T05:08:32;16.83;;;9.60;;
79135;SDS011;68533;51.090;17.216;2023-04-24T05:10:58;19.75;;;11.05;;
79135;SDS011;68533;51.090;17.216;2023-04-24T05:13:24;21.65;;;11.23;;
79135;SDS011;68533;51.090;17.216;2023-04-24T05:15:49;19.20;;;11.00;;
79135;SDS011;68533;51.090;17.216;2023-04-24T05:18:18;17.83;;;10.75;;
79135;SDS011;68533;51.090;17.216;2023-04-24T05:20:44;16.85;;;9.90;;
79135;SDS011;68533;51.090;17.216;2023-04-24T05:23:10;16.10;;;10.05;;
79135;SDS011;68533;51.090;17.216;2023-04-24T05:25:37;15.25;;;9.25;;
79135;SDS011;68533;51.090;17.216;2023-04-24T05:28:08;15.57;;;9.90;;
79135;SDS011;68533;51.090;17.216;2023-04-24T05:30:34;13.07;;;9.07;;
79135;SDS011;68533;51.090;17.216;2023-04-24T05:33:00;16.92;;;9.95;;
79135;SDS011;68533;51.090;17.216;2023-04-24T05:35:26;18.98;;;11.98;;
79135;SDS011;68533;51.090;17.216;2023-04-24T05:37:54;30.67;;;17.20;;
79135;SDS011;68533;51.090;17.216;2023-04-24T05:40:20;22.50;;;12.50;;
79135;SDS011;68533;51.090;17.216;2023-04-24T05:42:46;19.20;;;10.40;;
79135;SDS011;68533;51.090;17.216;2023-04-24T05:45:14;21.70;;;11.23;;
79135;SDS011;68533;51.090;17.216;2023-04-24T05:47:42;20.08;;;11.68;;
79135;SDS011;68533;51.090;17.216;2023-04-24T05:50:09;17.52;;;10.35;;
79135;SDS011;68533;51.090;17.216;2023-04-24T05:52:36;14.32;;;9.27;;
79135;SDS011;68533;51.090;17.216;2023-04-24T05:55:02;15.25;;;9.70;;
79135;SDS011;68533;51.090;17.216;2023-04-24T05:57:28;15.02;;;9.05;;
79135;SDS011;68533;51.090;17.216;2023-04-24T05:59:54;13.77;;;8.57;;
79135;SDS011;68533;51.090;17.216;2023-04-24T06:02:20;17.70;;;10.20;;
79135;SDS011;68533;51.090;17.216;2023-04-24T06:04:46;12.95;;;8.88;;
79135;SDS011;68533;51.090;17.216;2023-04-24T06:07:12;18.17;;;9.40;;
79135;SDS011;68533;51.090;17.216;2023-04-24T06:09:38;15.93;;;9.18;;
79135;SDS011;68533;51.090;17.216;2023-04-24T06:12:05;15.38;;;7.72;;
79135;SDS011;68533;51.090;17.216;2023-04-24T06:14:34;10.13;;;6.90;;
79135;SDS011;68533;51.090;17.216;2023-04-24T06:17:01;12.60;;;6.47;;
79135;SDS011;68533;51.090;17.216;2023-04-24T06:19:26;11.13;;;6.50;;
79135;SDS011;68533;51.090;17.216;2023-04-24T06:21:53;12.18;;;7.07;;
79135;SDS011;68533;51.090;17.216;2023-04-24T06:24:18;10.07;;;6.43;;
79135;SDS011;68533;51.090;17.216;2023-04-24T06:26:45;7.85;;;5.93;;
79135;SDS011;68533;51.090;17.216;2023-04-24T06:29:10;11.55;;;5.80;;
79135;SDS011;68533;51.090;17.216;2023-04-24T06:31:39;12.75;;;6.10;;
79135;SDS011;68533;51.090;17.216;2023-04-24T06:34:05;8.80;;;5.88;;
79135;SDS011;68533;51.090;17.216;2023-04-24T06:36:31;9.18;;;5.80;;
79135;SDS011;68533;51.090;17.216;2023-04-24T06:38:59;6.68;;;4.68;;
79135;SDS011;68533;51.090;17.216;2023-04-24T06:41:26;7.78;;;4.70;;
79135;SDS011;68533;51.090;17.216;2023-04-24T06:43:52;8.65;;;5.32;;
79135;SDS011;68533;51.090;17.216;2023-04-24T06:46:18;5.05;;;3.78;;
79135;SDS011;68533;51.090;17.216;2023-04-24T06:48:44;9.73;;;4.30;;
79135;SDS011;68533;51.090;17.216;2023-04-24T06:51:13;5.65;;;3.90;;
79135;SDS011;68533;51.090;17.216;2023-04-24T06:53:39;10.20;;;4.55;;
79135;SDS011;68533;51.090;17.216;2023-04-24T06:56:05;5.85;;;4.00;;
79135;SDS011;68533;51.090;17.216;2023-04-24T06:58:32;6.63;;;4.38;;
79135;SDS011;68533;51.090;17.216;2023-04-24T07:00:58;6.22;;;4.35;;
79135;SDS011;68533;51.090;17.216;2023-04-24T07:03:24;7.93;;;4.18;;
79135;SDS011;68533;51.090;17.216;2023-04-24T07:05:51;5.38;;;4.30;;
79135;SDS011;68533;51.090;17.216;2023-04-24T07:08:19;7.43;;;4.10;;
79135;SDS011;68533;51.090;17.216;2023-04-24T07:10:48;7.45;;;4.65;;
79135;SDS011;68533;51.090;17.216;2023-04-24T07:13:17;5.78;;;3.92;;
79135;SDS011;68533;51.090;17.216;2023-04-24T07:15:44;6.68;;;3.75;;
79135;SDS011;68533;51.090;17.216;2023-04-24T07:18:10;8.10;;;3.80;;
79135;SDS011;68533;51.090;17.216;2023-04-24T07:20:37;9.75;;;4.97;;
79135;SDS011;68533;51.090;17.216;2023-04-24T07:23:03;6.95;;;4.60;;
79135;SDS011;68533;51.090;17.216;2023-04-24T07:25:29;6.32;;;4.22;;
79135;SDS011;68533;51.090;17.216;2023-04-24T07:27:56;4.97;;;3.95;;
79135;SDS011;68533;51.090;17.216;2023-04-24T07:30:23;5.65;;;4.43;;
79135;SDS011;68533;51.090;17.216;2023-04-24T07:32:50;7.00;;;4.45;;
79135;SDS011;68533;51.090;17.216;2023-04-24T07:35:16;5.60;;;4.63;;
79135;SDS011;68533;51.090;17.216;2023-04-24T07:37:45;9.60;;;4.30;;
79135;SDS011;68533;51.090;17.216;2023-04-24T07:40:13;4.75;;;4.00;;
79135;SDS011;68533;51.090;17.216;2023-04-24T07:42:39;4.68;;;3.92;;
79135;SDS011;68533;51.090;17.216;2023-04-24T07:45:06;6.30;;;3.88;;
79135;SDS011;68533;51.090;17.216;2023-04-24T07:47:32;5.95;;;4.18;;
79135;SDS011;68533;51.090;17.216;2023-04-24T07:49:59;8.75;;;4.35;;
79135;SDS011;68533;51.090;17.216;2023-04-24T07:52:25;5.28;;;3.90;;
79135;SDS011;68533;51.090;17.216;2023-04-24T07:54:51;6.75;;;4.65;;
79135;SDS011;68533;51.090;17.216;2023-04-24T07:57:25;7.13;;;3.67;;
79135;SDS011;68533;51.090;17.216;2023-04-24T07:59:51;6.35;;;4.32;;
79135;SDS011;68533;51.090;17.216;2023-04-24T08:02:17;5.90;;;4.20;;
79135;SDS011;68533;51.090;17.216;2023-04-24T08:04:43;6.43;;;3.75;;
79135;SDS011;68533;51.090;17.216;2023-04-24T08:07:09;4.95;;;4.13;;
79135;SDS011;68533;51.090;17.216;2023-04-24T08:09:35;10.13;;;3.92;;
79135;SDS011;68533;51.090;17.216;2023-04-24T08:12:01;6.25;;;4.15;;
79135;SDS011;68533;51.090;17.216;2023-04-24T08:14:28;5.38;;;4.22;;
79135;SDS011;68533;51.090;17.216;2023-04-24T08:16:54;6.88;;;4.05;;
79135;SDS011;68533;51.090;17.216;2023-04-24T08:19:21;7.13;;;4.43;;
79135;SDS011;68533;51.090;17.216;2023-04-24T08:21:47;6.88;;;4.65;;
79135;SDS011;68533;51.090;17.216;2023-04-24T08:24:13;6.85;;;5.03;;
79135;SDS011;68533;51.090;17.216;2023-04-24T08:26:39;9.95;;;5.60;;
79135;SDS011;68533;51.090;17.216;2023-04-24T08:29:08;7.05;;;5.45;;
79135;SDS011;68533;51.090;17.216;2023-04-24T08:31:34;5.55;;;4.88;;
79135;SDS011;68533;51.090;17.216;2023-04-24T08:34:02;7.20;;;4.95;;
79135;SDS011;68533;51.090;17.216;2023-04-24T08:36:28;7.78;;;5.32;;
79135;SDS011;68533;51.090;17.216;2023-04-24T08:38:54;12.65;;;6.65;;
79135;SDS011;68533;51.090;17.216;2023-04-24T08:41:20;8.73;;;4.78;;
79135;SDS011;68533;51.090;17.216;2023-04-24T08:43:49;8.35;;;4.75;;
79135;SDS011;68533;51.090;17.216;2023-04-24T08:46:16;10.63;;;6.00;;
79135;SDS011;68533;51.090;17.216;2023-04-24T08:48:44;15.55;;;5.82;;
79135;SDS011;68533;51.090;17.216;2023-04-24T08:51:10;8.63;;;5.53;;
79135;SDS011;68533;51.090;17.216;2023-04-24T08:53:37;8.98;;;5.60;;
79135;SDS011;68533;51.090;17.216;2023-04-24T08:56:04;7.32;;;5.05;;
79135;SDS011;68533;51.090;17.216;2023-04-24T08:58:31;6.93;;;4.65;;
79135;SDS011;68533;51.090;17.216;2023-04-24T09:00:57;9.65;;;5.20;;
79135;SDS011;68533;51.090;17.216;2023-04-24T09:03:27;9.07;;;5.80;;
79135;SDS011;68533;51.090;17.216;2023-04-24T09:05:55;7.88;;;5.05;;
79135;SDS011;68533;51.090;17.216;2023-04-24T09:08:23;5.60;;;4.80;;
79135;SDS011;68533;51.090;17.216;2023-04-24T09:10:51;6.85;;;4.82;;
79135;SDS011;68533;51.090;17.216;2023-04-24T09:13:21;7.10;;;4.80;;
79135;SDS011;68533;51.090;17.216;2023-04-24T09:15:47;9.57;;;4.72;;
79135;SDS011;68533;51.090;17.216;2023-04-24T09:18:13;6.60;;;4.43;;
79135;SDS011;68533;51.090;17.216;2023-04-24T09:23:34;8.45;;;4.20;;
79135;SDS011;68533;51.090;17.216;2023-04-24T09:26:01;8.13;;;5.18;;
79135;SDS011;68533;51.090;17.216;2023-04-24T09:28:31;6.30;;;4.80;;
79135;SDS011;68533;51.090;17.216;2023-04-24T09:33:55;6.07;;;3.70;;
79135;SDS011;68533;51.090;17.216;2023-04-24T09:36:29;5.07;;;4.20;;
79135;SDS011;68533;51.090;17.216;2023-04-24T09:39:05;7.82;;;4.50;;
79135;SDS011;68533;51.090;17.216;2023-04-24T09:41:43;5.80;;;4.28;;
79135;SDS011;68533;51.090;17.216;2023-04-24T09:46:51;6.88;;;4.88;;
79135;SDS011;68533;51.090;17.216;2023-04-24T09:49:25;7.22;;;4.65;;
79135;SDS011;68533;51.090;17.216;2023-04-24T09:51:52;8.32;;;5.20;;
79135;SDS011;68533;51.090;17.216;2023-04-24T09:54:30;7.97;;;5.43;;
79135;SDS011;68533;51.090;17.216;2023-04-24T09:56:56;8.50;;;6.13;;
79135;SDS011;68533;51.090;17.216;2023-04-24T09:59:23;7.43;;;5.40;;
79135;SDS011;68533;51.090;17.216;2023-04-24T10:01:48;7.55;;;5.90;;
79135;SDS011;68533;51.090;17.216;2023-04-24T10:04:15;9.50;;;5.40;;
79135;SDS011;68533;51.090;17.216;2023-04-24T10:06:43;7.13;;;5.47;;
79135;SDS011;68533;51.090;17.216;2023-04-24T10:09:10;8.13;;;4.85;;
79135;SDS011;68533;51.090;17.216;2023-04-24T10:11:37;6.10;;;4.50;;
79135;SDS011;68533;51.090;17.216;2023-04-24T10:14:08;6.07;;;4.22;;
79135;SDS011;68533;51.090;17.216;2023-04-24T10:16:36;6.78;;;4.65;;
79135;SDS011;68533;51.090;17.216;2023-04-24T10:19:03;6.35;;;4.57;;
79135;SDS011;68533;51.090;17.216;2023-04-24T10:21:29;7.72;;;4.32;;
79135;SDS011;68533;51.090;17.216;2023-04-24T10:23:56;7.32;;;4.60;;
79135;SDS011;68533;51.090;17.216;2023-04-24T10:26:25;7.03;;;5.40;;
79135;SDS011;68533;51.090;17.216;2023-04-24T10:28:53;5.70;;;4.25;;
79135;SDS011;68533;51.090;17.216;2023-04-24T10:31:19;6.35;;;4.28;;
79135;SDS011;68533;51.090;17.216;2023-04-24T10:33:46;7.60;;;5.40;;
79135;SDS011;68533;51.090;17.216;2023-04-24T10:36:15;7.53;;;4.57;;
79135;SDS011;68533;51.090;17.216;2023-04-24T10:38:42;8.85;;;4.97;;
79135;SDS011;68533;51.090;17.216;2023-04-24T10:41:12;8.05;;;6.28;;
79135;SDS011;68533;51.090;17.216;2023-04-24T10:43:45;6.53;;;4.50;;
79135;SDS011;68533;51.090;17.216;2023-04-24T10:46:16;6.45;;;5.68;;
79135;SDS011;68533;51.090;17.216;2023-04-24T10:48:52;6.88;;;5.28;;
79135;SDS011;68533;51.090;17.216;2023-04-24T10:51:21;9.05;;;6.47;;
79135;SDS011;68533;51.090;17.216;2023-04-24T10:53:51;11.80;;;7.53;;
79135;SDS011;68533;51.090;17.216;2023-04-24T10:56:19;7.43;;;6.60;;
79135;SDS011;68533;51.090;17.216;2023-04-24T10:58:51;8.27;;;5.45;;
79135;SDS011;68533;51.090;17.216;2023-04-24T11:01:28;9.82;;;5.65;;
79135;SDS011;68533;51.090;17.216;2023-04-24T11:03:57;9.45;;;4.72;;
79135;SDS011;68533;51.090;17.216;2023-04-24T11:06:30;7.68;;;5.38;;
79135;SDS011;68533;51.090;17.216;2023-04-24T11:11:44;7.00;;;5.32;;
79135;SDS011;68533;51.090;17.216;2023-04-24T11:14:14;15.70;;;5.38;;
79135;SDS011;68533;51.090;17.216;2023-04-24T11:19:17;10.55;;;5.70;;
79135;SDS011;68533;51.090;17.216;2023-04-24T11:24:28;5.97;;;4.80;;
79135;SDS011;68533;51.090;17.216;2023-04-24T11:27:14;6.90;;;4.57;;
79135;SDS011;68533;51.090;17.216;2023-04-24T11:35:18;6.68;;;5.40;;
79135;SDS011;68533;51.090;17.216;2023-04-24T11:37:50;6.25;;;5.10;;
79135;SDS011;68533;51.090;17.216;2023-04-24T11:40:19;6.95;;;4.43;;
79135;SDS011;68533;51.090;17.216;2023-04-24T11:42:47;6.18;;;4.18;;
79135;SDS011;68533;51.090;17.216;2023-04-24T11:45:15;7.05;;;5.03;;
79135;SDS011;68533;51.090;17.216;2023-04-24T11:47:42;7.35;;;5.38;;
79135;SDS011;68533;51.090;17.216;2023-04-24T11:50:10;7.63;;;5.15;;
79135;SDS011;68533;51.090;17.216;2023-04-24T11:52:38;11.07;;;5.55;;
79135;SDS011;68533;51.090;17.216;2023-04-24T12:00:22;9.80;;;6.65;;
79135;SDS011;68533;51.090;17.216;2023-04-24T12:03:02;9.02;;;6.22;;
79135;SDS011;68533;51.090;17.216;2023-04-24T12:05:33;7.82;;;5.85;;
79135;SDS011;68533;51.090;17.216;2023-04-24T12:08:00;6.63;;;5.45;;
79135;SDS011;68533;51.090;17.216;2023-04-24T12:10:28;8.75;;;5.70;;
79135;SDS011;68533;51.090;17.216;2023-04-24T12:12:56;8.60;;;5.35;;
79135;SDS011;68533;51.090;17.216;2023-04-24T12:15:24;7.28;;;5.82;;
79135;SDS011;68533;51.090;17.216;2023-04-24T12:17:51;9.48;;;5.50;;
79135;SDS011;68533;51.090;17.216;2023-04-24T12:20:29;7.63;;;5.68;;
79135;SDS011;68533;51.090;17.216;2023-04-24T12:22:56;10.02;;;4.95;;
79135;SDS011;68533;51.090;17.216;2023-04-24T12:27:54;6.93;;;5.43;;
79135;SDS011;68533;51.090;17.216;2023-04-24T12:30:26;5.47;;;4.90;;
79135;SDS011;68533;51.090;17.216;2023-04-24T12:32:53;6.55;;;4.80;;
79135;SDS011;68533;51.090;17.216;2023-04-24T12:35:21;9.70;;;5.72;;
79135;SDS011;68533;51.090;17.216;2023-04-24T12:37:49;9.48;;;5.72;;
79135;SDS011;68533;51.090;17.216;2023-04-24T12:40:16;6.07;;;4.25;;
79135;SDS011;68533;51.090;17.216;2023-04-24T12:42:47;6.43;;;4.88;;
79135;SDS011;68533;51.090;17.216;2023-04-24T12:45:17;8.43;;;4.70;;
79135;SDS011;68533;51.090;17.216;2023-04-24T12:47:44;8.10;;;4.80;;
79135;SDS011;68533;51.090;17.216;2023-04-24T12:50:12;6.25;;;4.78;;
79135;SDS011;68533;51.090;17.216;2023-04-24T12:52:40;7.50;;;5.55;;
79135;SDS011;68533;51.090;17.216;2023-04-24T12:55:07;7.45;;;5.40;;
79135;SDS011;68533;51.090;17.216;2023-04-24T12:57:34;7.30;;;5.15;;
79135;SDS011;68533;51.090;17.216;2023-04-24T13:00:02;11.15;;;6.30;;
79135;SDS011;68533;51.090;17.216;2023-04-24T13:02:30;12.23;;;7.60;;
79135;SDS011;68533;51.090;17.216;2023-04-24T13:04:58;12.48;;;6.97;;
79135;SDS011;68533;51.090;17.216;2023-04-24T13:07:26;10.38;;;6.45;;
79135;SDS011;68533;51.090;17.216;2023-04-24T13:09:53;14.30;;;6.78;;
79135;SDS011;68533;51.090;17.216;2023-04-24T13:12:20;8.10;;;6.25;;
79135;SDS011;68533;51.090;17.216;2023-04-24T13:14:47;9.65;;;6.38;;
79135;SDS011;68533;51.090;17.216;2023-04-24T13:17:13;9.48;;;6.53;;
79135;SDS011;68533;51.090;17.216;2023-04-24T13:19:45;11.90;;;6.45;;
79135;SDS011;68533;51.090;17.216;2023-04-24T13:22:11;9.90;;;7.20;;
79135;SDS011;68533;51.090;17.216;2023-04-24T13:24:38;13.30;;;7.25;;
79135;SDS011;68533;51.090;17.216;2023-04-24T13:27:07;11.40;;;8.18;;
79135;SDS011;68533;51.090;17.216;2023-04-24T13:29:35;10.80;;;7.70;;
79135;SDS011;68533;51.090;17.216;2023-04-24T13:32:02;13.82;;;8.90;;
79135;SDS011;68533;51.090;17.216;2023-04-24T13:34:28;10.85;;;9.35;;
79135;SDS011;68533;51.090;17.216;2023-04-24T13:36:55;11.45;;;8.52;;
79135;SDS011;68533;51.090;17.216;2023-04-24T13:39:25;13.20;;;8.00;;
79135;SDS011;68533;51.090;17.216;2023-04-24T13:41:51;12.15;;;7.82;;
79135;SDS011;68533;51.090;17.216;2023-04-24T13:44:17;9.52;;;6.78;;
79135;SDS011;68533;51.090;17.216;2023-04-24T13:46:45;10.18;;;6.85;;
79135;SDS011;68533;51.090;17.216;2023-04-24T13:49:12;11.85;;;7.55;;
79135;SDS011;68533;51.090;17.216;2023-04-24T13:51:39;10.38;;;7.57;;
79135;SDS011;68533;51.090;17.216;2023-04-24T13:54:07;11.05;;;7.63;;
79135;SDS011;68533;51.090;17.216;2023-04-24T13:56:32;10.52;;;7.32;;
79135;SDS011;68533;51.090;17.216;2023-04-24T13:58:59;7.55;;;5.45;;
79135;SDS011;68533;51.090;17.216;2023-04-24T14:01:25;7.78;;;3.58;;
79135;SDS011;68533;51.090;17.216;2023-04-24T14:03:52;6.70;;;3.17;;
79135;SDS011;68533;51.090;17.216;2023-04-24T14:06:21;3.05;;;2.35;;
79135;SDS011;68533;51.090;17.216;2023-04-24T14:08:48;3.97;;;1.70;;
79135;SDS011;68533;51.090;17.216;2023-04-24T14:11:16;2.13;;;1.50;;
79135;SDS011;68533;51.090;17.216;2023-04-24T14:13:42;2.40;;;1.50;;
79135;SDS011;68533;51.090;17.216;2023-04-24T14:16:09;2.85;;;2.05;;
79135;SDS011;68533;51.090;17.216;2023-04-24T14:18:36;3.33;;;1.80;;
79135;SDS011;68533;51.090;17.216;2023-04-24T14:21:02;4.63;;;2.50;;
79135;SDS011;68533;51.090;17.216;2023-04-24T14:23:29;3.30;;;1.52;;
79135;SDS011;68533;51.090;17.216;2023-04-24T14:25:58;2.22;;;1.40;;
79135;SDS011;68533;51.090;17.216;2023-04-24T14:28:24;8.43;;;1.55;;
79135;SDS011;68533;51.090;17.216;2023-04-24T14:30:51;3.40;;;1.10;;
79135;SDS011;68533;51.090;17.216;2023-04-24T14:33:18;2.38;;;1.45;;
79135;SDS011;68533;51.090;17.216;2023-04-24T14:35:44;3.55;;;1.52;;
79135;SDS011;68533;51.090;17.216;2023-04-24T14:38:11;2.00;;;1.20;;
79135;SDS011;68533;51.090;17.216;2023-04-24T14:40:37;2.20;;;1.20;;
79135;SDS011;68533;51.090;17.216;2023-04-24T14:43:04;2.42;;;1.50;;
79135;SDS011;68533;51.090;17.216;2023-04-24T14:45:30;3.13;;;1.65;;
79135;SDS011;68533;51.090;17.216;2023-04-24T14:47:58;2.50;;;0.80;;
79135;SDS011;68533;51.090;17.216;2023-04-24T14:50:24;1.92;;;0.80;;
79135;SDS011;68533;51.090;17.216;2023-04-24T14:52:54;4.82;;;1.05;;
79135;SDS011;68533;51.090;17.216;2023-04-24T14:55:25;3.15;;;0.80;;
79135;SDS011;68533;51.090;17.216;2023-04-24T14:57:53;3.60;;;1.48;;